Agua Dulce, California
Current Conditions -  °F | °C
As of 9:56 AM on Thursday 30 Oct 2014 (Local Time) from KWJF Reporting Station
Clear Clear  
Wind Chill: 61°   Ceiling: Unl
Heat Index: 61°   Visibility: 10mi
Dew Point: 22°   Wind: 3mph
Humidity: 22%   Direction: 340°NNW
Pressure: 30.09"   Gusts: NA
Location:  34.513°N, 118.402°W
Report Text: KWJF 301656Z 34003KT 10SM CLR 16/M06 A3009 RMK AO2 SLP186 T01611056
Loading
Personal Weather Stations






























Interactive Weather Map New forecast layout! Learn more

10-Day Weather Forecast

Advertisements
Track Severe Weather on mobile